sensor_id;sensor_type;location;lat;lon;timestamp;temperature;humidity
59857;DHT22;45733;52.668;6.860;2023-06-22T00:01:58;18.40;99.90
59857;DHT22;45733;52.668;6.860;2023-06-22T00:04:24;18.50;99.90
59857;DHT22;45733;52.668;6.860;2023-06-22T00:06:50;18.60;99.90
59857;DHT22;45733;52.668;6.860;2023-06-22T00:09:16;18.60;99.90
59857;DHT22;45733;52.668;6.860;2023-06-22T00:11:42;18.50;99.90
59857;DHT22;45733;52.668;6.860;2023-06-22T00:14:07;18.40;99.90
59857;DHT22;45733;52.668;6.860;2023-06-22T00:16:33;18.40;99.90
59857;DHT22;45733;52.668;6.860;2023-06-22T00:18:59;18.50;99.90
59857;DHT22;45733;52.668;6.860;2023-06-22T00:21:29;18.50;99.90
59857;DHT22;45733;52.668;6.860;2023-06-22T00:23:56;18.50;99.90
59857;DHT22;45733;52.668;6.860;2023-06-22T00:26:23;18.40;99.90
59857;DHT22;45733;52.668;6.860;2023-06-22T00:28:48;18.40;99.90
59857;DHT22;45733;52.668;6.860;2023-06-22T00:31:14;18.40;99.90
59857;DHT22;45733;52.668;6.860;2023-06-22T00:33:40;18.40;99.90
59857;DHT22;45733;52.668;6.860;2023-06-22T00:36:07;18.40;99.90
59857;DHT22;45733;52.668;6.860;2023-06-22T00:38:38;18.40;99.90
59857;DHT22;45733;52.668;6.860;2023-06-22T00:41:05;18.30;99.90
59857;DHT22;45733;52.668;6.860;2023-06-22T00:43:31;18.40;99.90
59857;DHT22;45733;52.668;6.860;2023-06-22T00:45:57;18.30;99.90
59857;DHT22;45733;52.668;6.860;2023-06-22T00:48:22;18.20;99.90
59857;DHT22;45733;52.668;6.860;2023-06-22T00:50:48;18.10;99.90
59857;DHT22;45733;52.668;6.860;2023-06-22T00:53:16;18.10;99.90
59857;DHT22;45733;52.668;6.860;2023-06-22T00:55:44;18.10;99.90
59857;DHT22;45733;52.668;6.860;2023-06-22T00:58:11;18.00;99.90
59857;DHT22;45733;52.668;6.860;2023-06-22T01:00:38;18.10;99.90
59857;DHT22;45733;52.668;6.860;2023-06-22T01:03:04;18.00;99.90
59857;DHT22;45733;52.668;6.860;2023-06-22T01:05:35;18.00;99.90
59857;DHT22;45733;52.668;6.860;2023-06-22T01:10:57;18.00;99.90
59857;DHT22;45733;52.668;6.860;2023-06-22T01:14:00;18.00;99.90
59857;DHT22;45733;52.668;6.860;2023-06-22T01:16:30;17.90;99.90
59857;DHT22;45733;52.668;6.860;2023-06-22T01:19:00;17.90;99.90
59857;DHT22;45733;52.668;6.860;2023-06-22T01:21:29;17.80;99.90
59857;DHT22;45733;52.668;6.860;2023-06-22T01:29:56;17.80;99.90
59857;DHT22;45733;52.668;6.860;2023-06-22T01:32:32;17.80;99.90
59857;DHT22;45733;52.668;6.860;2023-06-22T01:35:00;17.80;99.90
59857;DHT22;45733;52.668;6.860;2023-06-22T01:37:27;17.80;99.90
59857;DHT22;45733;52.668;6.860;2023-06-22T01:39:55;17.80;99.90
59857;DHT22;45733;52.668;6.860;2023-06-22T01:42:22;17.80;99.90
59857;DHT22;45733;52.668;6.860;2023-06-22T01:44:49;17.90;99.90
59857;DHT22;45733;52.668;6.860;2023-06-22T01:47:16;17.70;99.90
59857;DHT22;45733;52.668;6.860;2023-06-22T01:49:43;17.60;99.90
59857;DHT22;45733;52.668;6.860;2023-06-22T01:52:09;17.70;99.90
59857;DHT22;45733;52.668;6.860;2023-06-22T01:54:36;17.60;99.90
59857;DHT22;45733;52.668;6.860;2023-06-22T01:57:02;17.70;99.90
59857;DHT22;45733;52.668;6.860;2023-06-22T02:02:19;17.60;99.90
59857;DHT22;45733;52.668;6.860;2023-06-22T02:05:10;17.60;99.90
59857;DHT22;45733;52.668;6.860;2023-06-22T02:07:52;17.50;99.90
59857;DHT22;45733;52.668;6.860;2023-06-22T02:10:23;17.40;99.90
59857;DHT22;45733;52.668;6.860;2023-06-22T02:12:50;17.30;99.90
59857;DHT22;45733;52.668;6.860;2023-06-22T02:15:17;17.40;99.90
59857;DHT22;45733;52.668;6.860;2023-06-22T02:17:43;17.40;99.90
59857;DHT22;45733;52.668;6.860;2023-06-22T02:20:13;17.50;99.90
59857;DHT22;45733;52.668;6.860;2023-06-22T02:22:38;17.60;99.90
59857;DHT22;45733;52.668;6.860;2023-06-22T02:25:04;17.60;99.90
59857;DHT22;45733;52.668;6.860;2023-06-22T02:27:30;17.60;99.90
59857;DHT22;45733;52.668;6.860;2023-06-22T02:29:56;17.50;99.90
59857;DHT22;45733;52.668;6.860;2023-06-22T02:32:22;17.50;99.90
59857;DHT22;45733;52.668;6.860;2023-06-22T02:34:47;17.40;99.90
59857;DHT22;45733;52.668;6.860;2023-06-22T02:37:14;17.30;99.90
59857;DHT22;45733;52.668;6.860;2023-06-22T02:39:42;17.30;99.90
59857;DHT22;45733;52.668;6.860;2023-06-22T02:42:08;17.10;99.90
59857;DHT22;45733;52.668;6.860;2023-06-22T02:44:36;17.00;99.90
59857;DHT22;45733;52.668;6.860;2023-06-22T02:47:02;17.10;99.90
59857;DHT22;45733;52.668;6.860;2023-06-22T02:49:27;17.10;99.90
59857;DHT22;45733;52.668;6.860;2023-06-22T02:51:53;17.00;99.90
59857;DHT22;45733;52.668;6.860;2023-06-22T02:54:20;17.20;99.90
59857;DHT22;45733;52.668;6.860;2023-06-22T02:56:46;17.10;99.90
59857;DHT22;45733;52.668;6.860;2023-06-22T02:59:11;17.10;99.90
59857;DHT22;45733;52.668;6.860;2023-06-22T03:01:37;17.10;99.90
59857;DHT22;45733;52.668;6.860;2023-06-22T03:04:06;17.10;99.90
59857;DHT22;45733;52.668;6.860;2023-06-22T03:06:32;17.00;99.90
59857;DHT22;45733;52.668;6.860;2023-06-22T03:09:03;16.90;99.90
59857;DHT22;45733;52.668;6.860;2023-06-22T03:11:31;16.90;99.90
59857;DHT22;45733;52.668;6.860;2023-06-22T03:13:57;16.80;99.90
59857;DHT22;45733;52.668;6.860;2023-06-22T03:16:23;16.70;99.90
59857;DHT22;45733;52.668;6.860;2023-06-22T03:18:48;16.80;99.90
59857;DHT22;45733;52.668;6.860;2023-06-22T03:21:14;16.80;99.90
59857;DHT22;45733;52.668;6.860;2023-06-22T03:23:41;16.80;99.90
59857;DHT22;45733;52.668;6.860;2023-06-22T03:26:09;16.80;99.90
59857;DHT22;45733;52.668;6.860;2023-06-22T03:28:34;16.80;99.90
59857;DHT22;45733;52.668;6.860;2023-06-22T03:31:00;16.70;99.90
59857;DHT22;45733;52.668;6.860;2023-06-22T03:33:26;16.80;99.90
59857;DHT22;45733;52.668;6.860;2023-06-22T03:35:51;16.80;99.90
59857;DHT22;45733;52.668;6.860;2023-06-22T03:38:17;16.70;99.90
59857;DHT22;45733;52.668;6.860;2023-06-22T03:40:43;16.80;99.90
59857;DHT22;45733;52.668;6.860;2023-06-22T03:43:08;16.90;99.90
59857;DHT22;45733;52.668;6.860;2023-06-22T03:45:34;16.90;99.90
59857;DHT22;45733;52.668;6.860;2023-06-22T03:48:01;16.90;99.90
59857;DHT22;45733;52.668;6.860;2023-06-22T03:50:27;16.80;99.90
59857;DHT22;45733;52.668;6.860;2023-06-22T03:52:52;16.90;99.90
59857;DHT22;45733;52.668;6.860;2023-06-22T03:55:20;16.90;99.90
59857;DHT22;45733;52.668;6.860;2023-06-22T03:57:45;17.00;99.90
59857;DHT22;45733;52.668;6.860;2023-06-22T04:00:12;17.00;99.90
59857;DHT22;45733;52.668;6.860;2023-06-22T04:02:38;17.00;99.90
59857;DHT22;45733;52.668;6.860;2023-06-22T04:05:04;17.10;99.90
59857;DHT22;45733;52.668;6.860;2023-06-22T04:07:30;17.10;99.90
59857;DHT22;45733;52.668;6.860;2023-06-22T04:09:56;17.10;99.90
59857;DHT22;45733;52.668;6.860;2023-06-22T04:12:21;17.10;99.90
59857;DHT22;45733;52.668;6.860;2023-06-22T04:14:47;17.10;99.90
59857;DHT22;45733;52.668;6.860;2023-06-22T04:17:13;17.20;99.90
59857;DHT22;45733;52.668;6.860;2023-06-22T04:19:40;17.10;99.90
59857;DHT22;45733;52.668;6.860;2023-06-22T04:22:05;17.00;99.90
59857;DHT22;45733;52.668;6.860;2023-06-22T04:24:33;17.30;99.90
59857;DHT22;45733;52.668;6.860;2023-06-22T04:26:59;17.20;99.90
59857;DHT22;45733;52.668;6.860;2023-06-22T04:29:26;17.30;99.90
59857;DHT22;45733;52.668;6.860;2023-06-22T04:31:54;17.40;99.90
59857;DHT22;45733;52.668;6.860;2023-06-22T04:34:21;17.30;99.90
59857;DHT22;45733;52.668;6.860;2023-06-22T04:36:47;17.30;99.90
59857;DHT22;45733;52.668;6.860;2023-06-22T04:39:12;17.40;99.90
59857;DHT22;45733;52.668;6.860;2023-06-22T04:41:39;17.50;99.90
59857;DHT22;45733;52.668;6.860;2023-06-22T04:44:18;17.60;99.90
59857;DHT22;45733;52.668;6.860;2023-06-22T04:46:53;18.00;99.90
59857;DHT22;45733;52.668;6.860;2023-06-22T04:49:20;18.20;99.90
59857;DHT22;45733;52.668;6.860;2023-06-22T04:51:46;18.70;99.90
59857;DHT22;45733;52.668;6.860;2023-06-22T04:54:12;20.20;99.90
59857;DHT22;45733;52.668;6.860;2023-06-22T04:56:38;20.80;99.90
59857;DHT22;45733;52.668;6.860;2023-06-22T04:59:06;21.80;99.90
59857;DHT22;45733;52.668;6.860;2023-06-22T05:01:33;22.80;99.90
59857;DHT22;45733;52.668;6.860;2023-06-22T05:04:00;23.40;99.90
59857;DHT22;45733;52.668;6.860;2023-06-22T05:06:27;23.70;99.90
59857;DHT22;45733;52.668;6.860;2023-06-22T05:08:56;24.50;99.90
59857;DHT22;45733;52.668;6.860;2023-06-22T05:11:28;25.20;99.90
59857;DHT22;45733;52.668;6.860;2023-06-22T05:13:56;25.40;99.90
59857;DHT22;45733;52.668;6.860;2023-06-22T05:16:22;25.70;99.90
59857;DHT22;45733;52.668;6.860;2023-06-22T05:18:51;26.20;99.90
59857;DHT22;45733;52.668;6.860;2023-06-22T05:21:17;26.00;99.90
59857;DHT22;45733;52.668;6.860;2023-06-22T05:23:43;26.30;99.90
59857;DHT22;45733;52.668;6.860;2023-06-22T05:26:08;26.30;99.90
59857;DHT22;45733;52.668;6.860;2023-06-22T05:28:35;26.60;99.90
59857;DHT22;45733;52.668;6.860;2023-06-22T05:31:01;27.60;99.90
59857;DHT22;45733;52.668;6.860;2023-06-22T05:33:26;27.80;99.90
59857;DHT22;45733;52.668;6.860;2023-06-22T05:35:52;27.50;99.90
59857;DHT22;45733;52.668;6.860;2023-06-22T05:38:18;27.00;99.90
59857;DHT22;45733;52.668;6.860;2023-06-22T05:40:43;26.90;99.90
59857;DHT22;45733;52.668;6.860;2023-06-22T05:43:09;26.90;99.90
59857;DHT22;45733;52.668;6.860;2023-06-22T05:45:35;26.00;99.90
59857;DHT22;45733;52.668;6.860;2023-06-22T05:48:00;25.50;99.90
59857;DHT22;45733;52.668;6.860;2023-06-22T05:50:26;24.30;99.90
59857;DHT22;45733;52.668;6.860;2023-06-22T05:52:52;23.70;99.90
59857;DHT22;45733;52.668;6.860;2023-06-22T05:55:18;23.10;99.90
59857;DHT22;45733;52.668;6.860;2023-06-22T05:57:44;23.30;99.90
59857;DHT22;45733;52.668;6.860;2023-06-22T06:00:10;22.90;99.90
59857;DHT22;45733;52.668;6.860;2023-06-22T06:02:37;23.20;99.90
59857;DHT22;45733;52.668;6.860;2023-06-22T06:05:12;23.50;99.90
59857;DHT22;45733;52.668;6.860;2023-06-22T06:07:40;23.50;99.90
59857;DHT22;45733;52.668;6.860;2023-06-22T06:10:06;23.40;99.90
59857;DHT22;45733;52.668;6.860;2023-06-22T06:12:32;23.70;99.90
59857;DHT22;45733;52.668;6.860;2023-06-22T06:14:58;23.70;99.90
59857;DHT22;45733;52.668;6.860;2023-06-22T06:17:23;23.50;99.90
59857;DHT22;45733;52.668;6.860;2023-06-22T06:19:49;23.70;99.90
59857;DHT22;45733;52.668;6.860;2023-06-22T06:22:15;23.70;99.90
59857;DHT22;45733;52.668;6.860;2023-06-22T06:24:40;23.70;99.90
59857;DHT22;45733;52.668;6.860;2023-06-22T06:27:06;24.10;99.90
59857;DHT22;45733;52.668;6.860;2023-06-22T06:29:32;24.10;99.90
59857;DHT22;45733;52.668;6.860;2023-06-22T06:31:58;24.40;99.90
59857;DHT22;45733;52.668;6.860;2023-06-22T06:34:23;24.50;99.90
59857;DHT22;45733;52.668;6.860;2023-06-22T06:36:49;24.20;99.90
59857;DHT22;45733;52.668;6.860;2023-06-22T06:39:14;23.90;99.90
59857;DHT22;45733;52.668;6.860;2023-06-22T06:41:41;24.10;99.90
59857;DHT22;45733;52.668;6.860;2023-06-22T06:44:07;22.50;99.90
59857;DHT22;45733;52.668;6.860;2023-06-22T06:46:32;22.60;99.90
59857;DHT22;45733;52.668;6.860;2023-06-22T06:48:58;23.00;99.90
59857;DHT22;45733;52.668;6.860;2023-06-22T06:51:24;22.70;99.90
59857;DHT22;45733;52.668;6.860;2023-06-22T06:53:49;23.00;99.90
59857;DHT22;45733;52.668;6.860;2023-06-22T06:56:16;23.50;99.90
59857;DHT22;45733;52.668;6.860;2023-06-22T06:58:42;23.40;99.90
59857;DHT22;45733;52.668;6.860;2023-06-22T07:01:08;23.70;99.90
59857;DHT22;45733;52.668;6.860;2023-06-22T07:03:34;23.70;99.90
59857;DHT22;45733;52.668;6.860;2023-06-22T07:06:00;23.90;99.90
59857;DHT22;45733;52.668;6.860;2023-06-22T07:08:26;23.80;99.90
59857;DHT22;45733;52.668;6.860;2023-06-22T07:10:54;24.20;99.90
59857;DHT22;45733;52.668;6.860;2023-06-22T07:13:20;24.00;99.90
59857;DHT22;45733;52.668;6.860;2023-06-22T07:15:46;23.80;99.90
59857;DHT22;45733;52.668;6.860;2023-06-22T07:18:11;24.20;99.90
59857;DHT22;45733;52.668;6.860;2023-06-22T07:20:37;23.50;99.90
59857;DHT22;45733;52.668;6.860;2023-06-22T07:23:05;24.00;99.90
59857;DHT22;45733;52.668;6.860;2023-06-22T07:25:32;24.00;99.90
59857;DHT22;45733;52.668;6.860;2023-06-22T07:30:23;23.50;99.90
59857;DHT22;45733;52.668;6.860;2023-06-22T07:32:49;24.20;99.90
59857;DHT22;45733;52.668;6.860;2023-06-22T07:35:14;24.30;99.90
59857;DHT22;45733;52.668;6.860;2023-06-22T07:37:42;24.50;99.90
59857;DHT22;45733;52.668;6.860;2023-06-22T07:40:08;24.50;99.90
59857;DHT22;45733;52.668;6.860;2023-06-22T07:42:35;24.50;99.90
59857;DHT22;45733;52.668;6.860;2023-06-22T07:45:03;24.60;99.90
59857;DHT22;45733;52.668;6.860;2023-06-22T07:47:29;24.50;99.90
59857;DHT22;45733;52.668;6.860;2023-06-22T07:49:57;24.60;99.90
59857;DHT22;45733;52.668;6.860;2023-06-22T07:52:24;24.80;99.90
59857;DHT22;45733;52.668;6.860;2023-06-22T07:54:51;24.30;99.90
59857;DHT22;45733;52.668;6.860;2023-06-22T07:57:16;24.50;99.90
59857;DHT22;45733;52.668;6.860;2023-06-22T07:59:42;24.80;99.90
59857;DHT22;45733;52.668;6.860;2023-06-22T08:02:07;24.90;99.90
59857;DHT22;45733;52.668;6.860;2023-06-22T08:04:34;24.60;99.90
59857;DHT22;45733;52.668;6.860;2023-06-22T08:07:01;25.40;99.90
59857;DHT22;45733;52.668;6.860;2023-06-22T08:09:31;25.40;99.90
59857;DHT22;45733;52.668;6.860;2023-06-22T08:11:57;25.00;99.90
59857;DHT22;45733;52.668;6.860;2023-06-22T08:14:25;25.60;99.90
59857;DHT22;45733;52.668;6.860;2023-06-22T08:16:50;24.90;99.90
59857;DHT22;45733;52.668;6.860;2023-06-22T08:19:16;24.40;99.90
59857;DHT22;45733;52.668;6.860;2023-06-22T08:21:42;24.60;99.90
59857;DHT22;45733;52.668;6.860;2023-06-22T08:24:08;24.80;99.90
59857;DHT22;45733;52.668;6.860;2023-06-22T08:26:34;25.40;99.90
59857;DHT22;45733;52.668;6.860;2023-06-22T08:29:05;25.40;99.90
59857;DHT22;45733;52.668;6.860;2023-06-22T08:31:31;25.90;99.90
59857;DHT22;45733;52.668;6.860;2023-06-22T08:33:58;26.00;99.90
59857;DHT22;45733;52.668;6.860;2023-06-22T08:36:24;25.40;99.90
59857;DHT22;45733;52.668;6.860;2023-06-22T08:38:51;25.30;99.90
59857;DHT22;45733;52.668;6.860;2023-06-22T08:41:19;26.00;99.90
59857;DHT22;45733;52.668;6.860;2023-06-22T08:43:45;26.10;99.90
59857;DHT22;45733;52.668;6.860;2023-06-22T08:46:11;26.50;99.90
59857;DHT22;45733;52.668;6.860;2023-06-22T08:48:36;26.20;99.90
59857;DHT22;45733;52.668;6.860;2023-06-22T08:51:02;25.30;99.90
59857;DHT22;45733;52.668;6.860;2023-06-22T08:53:28;26.20;99.90
59857;DHT22;45733;52.668;6.860;2023-06-22T08:55:54;25.80;99.90
59857;DHT22;45733;52.668;6.860;2023-06-22T08:58:20;26.00;99.90
59857;DHT22;45733;52.668;6.860;2023-06-22T09:00:47;26.50;99.90
59857;DHT22;45733;52.668;6.860;2023-06-22T09:03:13;25.70;99.90
59857;DHT22;45733;52.668;6.860;2023-06-22T09:05:38;26.30;99.90
59857;DHT22;45733;52.668;6.860;2023-06-22T09:08:04;26.20;99.90
59857;DHT22;45733;52.668;6.860;2023-06-22T09:10:30;26.50;99.90
59857;DHT22;45733;52.668;6.860;2023-06-22T09:12:57;26.10;99.90
59857;DHT22;45733;52.668;6.860;2023-06-22T09:15:22;26.30;99.90
59857;DHT22;45733;52.668;6.860;2023-06-22T09:17:48;26.70;99.90
59857;DHT22;45733;52.668;6.860;2023-06-22T09:20:14;26.20;99.90
59857;DHT22;45733;52.668;6.860;2023-06-22T09:22:41;25.90;99.90
59857;DHT22;45733;52.668;6.860;2023-06-22T09:25:06;26.70;99.90
59857;DHT22;45733;52.668;6.860;2023-06-22T09:27:33;26.60;99.90
59857;DHT22;45733;52.668;6.860;2023-06-22T09:29:58;27.00;99.90
59857;DHT22;45733;52.668;6.860;2023-06-22T09:32:24;26.50;99.90
59857;DHT22;45733;52.668;6.860;2023-06-22T09:34:51;26.90;99.90
59857;DHT22;45733;52.668;6.860;2023-06-22T09:37:16;26.90;99.90
59857;DHT22;45733;52.668;6.860;2023-06-22T09:39:42;27.40;99.90
59857;DHT22;45733;52.668;6.860;2023-06-22T09:42:08;27.60;99.90
59857;DHT22;45733;52.668;6.860;2023-06-22T09:44:34;27.50;99.90
59857;DHT22;45733;52.668;6.860;2023-06-22T09:46:59;27.50;99.90
59857;DHT22;45733;52.668;6.860;2023-06-22T09:49:25;27.30;99.90
59857;DHT22;45733;52.668;6.860;2023-06-22T09:51:51;27.30;99.90
59857;DHT22;45733;52.668;6.860;2023-06-22T09:54:17;27.50;99.90
59857;DHT22;45733;52.668;6.860;2023-06-22T09:56:43;26.90;99.90
59857;DHT22;45733;52.668;6.860;2023-06-22T09:59:09;27.10;99.90
59857;DHT22;45733;52.668;6.860;2023-06-22T10:01:35;27.80;99.90
59857;DHT22;45733;52.668;6.860;2023-06-22T10:04:02;28.00;99.90
59857;DHT22;45733;52.668;6.860;2023-06-22T10:06:27;27.90;99.90
59857;DHT22;45733;52.668;6.860;2023-06-22T10:08:53;27.90;99.90
59857;DHT22;45733;52.668;6.860;2023-06-22T10:11:19;27.70;99.90
59857;DHT22;45733;52.668;6.860;2023-06-22T10:13:44;28.10;99.90
59857;DHT22;45733;52.668;6.860;2023-06-22T10:16:10;28.00;99.90
59857;DHT22;45733;52.668;6.860;2023-06-22T10:18:36;28.70;99.90
59857;DHT22;45733;52.668;6.860;2023-06-22T10:21:02;29.00;99.90
59857;DHT22;45733;52.668;6.860;2023-06-22T10:23:27;28.90;99.90
59857;DHT22;45733;52.668;6.860;2023-06-22T10:25:53;29.30;99.90
59857;DHT22;45733;52.668;6.860;2023-06-22T10:28:19;29.30;99.90
59857;DHT22;45733;52.668;6.860;2023-06-22T10:30:45;28.70;99.90
59857;DHT22;45733;52.668;6.860;2023-06-22T10:33:11;28.20;99.90
59857;DHT22;45733;52.668;6.860;2023-06-22T10:35:37;28.50;99.90
59857;DHT22;45733;52.668;6.860;2023-06-22T10:38:03;28.60;99.90
59857;DHT22;45733;52.668;6.860;2023-06-22T10:40:29;28.30;99.90
59857;DHT22;45733;52.668;6.860;2023-06-22T10:42:55;27.80;99.90
59857;DHT22;45733;52.668;6.860;2023-06-22T10:45:20;28.50;99.90
59857;DHT22;45733;52.668;6.860;2023-06-22T10:47:46;28.80;99.90
59857;DHT22;45733;52.668;6.860;2023-06-22T10:50:13;28.60;99.90
59857;DHT22;45733;52.668;6.860;2023-06-22T10:52:39;28.90;99.90
59857;DHT22;45733;52.668;6.860;2023-06-22T10:55:05;28.90;99.90
59857;DHT22;45733;52.668;6.860;2023-06-22T10:57:31;28.40;99.90
59857;DHT22;45733;52.668;6.860;2023-06-22T10:59:57;28.90;99.90
59857;DHT22;45733;52.668;6.860;2023-06-22T11:02:23;28.40;99.90
59857;DHT22;45733;52.668;6.860;2023-06-22T11:04:50;28.10;99.90
59857;DHT22;45733;52.668;6.860;2023-06-22T11:07:15;28.20;99.90
59857;DHT22;45733;52.668;6.860;2023-06-22T11:09:43;27.40;99.90
59857;DHT22;45733;52.668;6.860;2023-06-22T11:12:09;27.00;99.90
59857;DHT22;45733;52.668;6.860;2023-06-22T11:14:35;27.00;99.90
59857;DHT22;45733;52.668;6.860;2023-06-22T11:17:00;26.80;99.90
59857;DHT22;45733;52.668;6.860;2023-06-22T11:19:26;27.30;99.90
59857;DHT22;45733;52.668;6.860;2023-06-22T11:21:52;27.40;99.90
59857;DHT22;45733;52.668;6.860;2023-06-22T11:24:17;26.90;99.90
59857;DHT22;45733;52.668;6.860;2023-06-22T11:26:43;26.70;99.90
59857;DHT22;45733;52.668;6.860;2023-06-22T11:29:09;27.20;99.90
59857;DHT22;45733;52.668;6.860;2023-06-22T11:31:35;27.10;99.90
59857;DHT22;45733;52.668;6.860;2023-06-22T11:34:01;27.00;99.90
59857;DHT22;45733;52.668;6.860;2023-06-22T11:36:27;26.90;99.90
59857;DHT22;45733;52.668;6.860;2023-06-22T11:38:53;27.10;99.90
59857;DHT22;45733;52.668;6.860;2023-06-22T11:41:18;27.10;99.90
59857;DHT22;45733;52.668;6.860;2023-06-22T11:43:44;27.20;99.90
59857;DHT22;45733;52.668;6.860;2023-06-22T11:46:10;26.90;99.90
59857;DHT22;45733;52.668;6.860;2023-06-22T11:48:36;26.90;99.90
59857;DHT22;45733;52.668;6.860;2023-06-22T11:51:02;26.50;99.90
59857;DHT22;45733;52.668;6.860;2023-06-22T11:53:28;26.80;99.90
59857;DHT22;45733;52.668;6.860;2023-06-22T11:55:54;27.10;99.90
59857;DHT22;45733;52.668;6.860;2023-06-22T11:58:21;26.80;99.90
59857;DHT22;45733;52.668;6.860;2023-06-22T12:00:46;26.70;99.90
59857;DHT22;45733;52.668;6.860;2023-06-22T12:03:12;27.10;99.90
59857;DHT22;45733;52.668;6.860;2023-06-22T12:05:38;26.90;99.90
59857;DHT22;45733;52.668;6.860;2023-06-22T12:08:04;26.90;99.90
59857;DHT22;45733;52.668;6.860;2023-06-22T12:10:30;26.90;99.90
59857;DHT22;45733;52.668;6.860;2023-06-22T12:12:56;27.00;99.90
59857;DHT22;45733;52.668;6.860;2023-06-22T12:15:23;26.30;99.90
59857;DHT22;45733;52.668;6.860;2023-06-22T12:17:49;26.70;99.90
59857;DHT22;45733;52.668;6.860;2023-06-22T12:20:15;26.90;99.90
59857;DHT22;45733;52.668;6.860;2023-06-22T12:22:41;26.60;99.90
59857;DHT22;45733;52.668;6.860;2023-06-22T12:25:07;26.70;99.90
59857;DHT22;45733;52.668;6.860;2023-06-22T12:27:34;26.60;99.90
59857;DHT22;45733;52.668;6.860;2023-06-22T12:30:00;26.70;99.90
59857;DHT22;45733;52.668;6.860;2023-06-22T12:32:25;26.50;99.90
59857;DHT22;45733;52.668;6.860;2023-06-22T12:34:51;26.40;99.90
59857;DHT22;45733;52.668;6.860;2023-06-22T12:37:42;26.30;99.90
59857;DHT22;45733;52.668;6.860;2023-06-22T12:40:09;26.30;99.90
59857;DHT22;45733;52.668;6.860;2023-06-22T12:42:34;26.00;99.90
59857;DHT22;45733;52.668;6.860;2023-06-22T12:45:00;25.80;99.90
59857;DHT22;45733;52.668;6.860;2023-06-22T12:47:26;25.90;99.90
59857;DHT22;45733;52.668;6.860;2023-06-22T12:49:51;25.80;99.90
59857;DHT22;45733;52.668;6.860;2023-06-22T12:52:17;25.60;99.90
59857;DHT22;45733;52.668;6.860;2023-06-22T12:54:42;25.60;99.90
59857;DHT22;45733;52.668;6.860;2023-06-22T12:57:08;25.50;99.90
59857;DHT22;45733;52.668;6.860;2023-06-22T12:59:34;25.50;99.90
59857;DHT22;45733;52.668;6.860;2023-06-22T13:01:59;25.40;99.90
59857;DHT22;45733;52.668;6.860;2023-06-22T13:04:25;25.40;99.90
59857;DHT22;45733;52.668;6.860;2023-06-22T13:06:51;25.40;99.90
59857;DHT22;45733;52.668;6.860;2023-06-22T13:09:18;25.30;99.90
59857;DHT22;45733;52.668;6.860;2023-06-22T13:11:44;25.40;99.90
59857;DHT22;45733;52.668;6.860;2023-06-22T13:14:10;25.60;99.90
59857;DHT22;45733;52.668;6.860;2023-06-22T13:16:35;25.60;99.90
59857;DHT22;45733;52.668;6.860;2023-06-22T13:19:01;25.40;99.90
59857;DHT22;45733;52.668;6.860;2023-06-22T13:21:27;25.40;99.90
59857;DHT22;45733;52.668;6.860;2023-06-22T13:23:52;25.40;99.90
59857;DHT22;45733;52.668;6.860;2023-06-22T13:26:18;25.50;99.90
59857;DHT22;45733;52.668;6.860;2023-06-22T13:28:44;25.50;99.90
59857;DHT22;45733;52.668;6.860;2023-06-22T13:31:09;25.60;99.90
59857;DHT22;45733;52.668;6.860;2023-06-22T13:33:35;25.60;99.90
59857;DHT22;45733;52.668;6.860;2023-06-22T13:36:00;25.50;99.90
59857;DHT22;45733;52.668;6.860;2023-06-22T13:38:28;25.40;99.90
59857;DHT22;45733;52.668;6.860;2023-06-22T13:40:54;25.30;99.90
59857;DHT22;45733;52.668;6.860;2023-06-22T13:43:23;25.30;99.90
59857;DHT22;45733;52.668;6.860;2023-06-22T13:45:48;25.20;99.90
59857;DHT22;45733;52.668;6.860;2023-06-22T13:48:14;25.10;99.90
59857;DHT22;45733;52.668;6.860;2023-06-22T13:50:40;24.80;99.90
59857;DHT22;45733;52.668;6.860;2023-06-22T13:53:05;24.80;99.90
59857;DHT22;45733;52.668;6.860;2023-06-22T13:55:31;24.80;99.90
59857;DHT22;45733;52.668;6.860;2023-06-22T13:57:57;24.90;99.90
59857;DHT22;45733;52.668;6.860;2023-06-22T14:00:22;24.90;99.90
59857;DHT22;45733;52.668;6.860;2023-06-22T14:02:48;25.00;99.90
59857;DHT22;45733;52.668;6.860;2023-06-22T14:05:14;25.10;99.90
59857;DHT22;45733;52.668;6.860;2023-06-22T14:07:40;24.90;99.90
59857;DHT22;45733;52.668;6.860;2023-06-22T14:10:06;24.70;99.90
59857;DHT22;45733;52.668;6.860;2023-06-22T14:12:31;24.70;99.90
59857;DHT22;45733;52.668;6.860;2023-06-22T14:14:57;24.40;99.90
59857;DHT22;45733;52.668;6.860;2023-06-22T14:17:23;24.40;99.90
59857;DHT22;45733;52.668;6.860;2023-06-22T14:19:52;24.40;99.90
59857;DHT22;45733;52.668;6.860;2023-06-22T14:22:21;24.20;99.90
59857;DHT22;45733;52.668;6.860;2023-06-22T14:24:48;24.20;99.90
59857;DHT22;45733;52.668;6.860;2023-06-22T14:27:14;24.20;99.90
59857;DHT22;45733;52.668;6.860;2023-06-22T14:29:40;24.20;99.90
59857;DHT22;45733;52.668;6.860;2023-06-22T14:32:06;23.90;99.90
59857;DHT22;45733;52.668;6.860;2023-06-22T14:34:32;24.10;99.90
59857;DHT22;45733;52.668;6.860;2023-06-22T14:36:58;23.90;99.90
59857;DHT22;45733;52.668;6.860;2023-06-22T14:39:24;24.00;99.90
59857;DHT22;45733;52.668;6.860;2023-06-22T14:41:49;24.00;99.90
59857;DHT22;45733;52.668;6.860;2023-06-22T14:44:15;23.90;99.90
59857;DHT22;45733;52.668;6.860;2023-06-22T14:46:41;23.90;99.90
59857;DHT22;45733;52.668;6.860;2023-06-22T14:49:07;23.70;99.90
59857;DHT22;45733;52.668;6.860;2023-06-22T14:51:32;23.90;99.90
59857;DHT22;45733;52.668;6.860;2023-06-22T14:53:58;23.70;99.90
59857;DHT22;45733;52.668;6.860;2023-06-22T14:56:23;23.70;99.90
59857;DHT22;45733;52.668;6.860;2023-06-22T14:58:49;23.70;99.90
59857;DHT22;45733;52.668;6.860;2023-06-22T15:01:17;23.70;99.90
59857;DHT22;45733;52.668;6.860;2023-06-22T15:03:42;23.50;99.90
59857;DHT22;45733;52.668;6.860;2023-06-22T15:06:09;23.50;99.90
59857;DHT22;45733;52.668;6.860;2023-06-22T15:08:39;23.40;99.90
59857;DHT22;45733;52.668;6.860;2023-06-22T15:11:06;23.30;99.90
59857;DHT22;45733;52.668;6.860;2023-06-22T15:13:32;23.30;99.90
59857;DHT22;45733;52.668;6.860;2023-06-22T15:16:02;23.30;99.90
59857;DHT22;45733;52.668;6.860;2023-06-22T15:18:29;23.20;99.90
59857;DHT22;45733;52.668;6.860;2023-06-22T15:20:55;23.00;99.90
59857;DHT22;45733;52.668;6.860;2023-06-22T15:23:20;23.00;99.90
59857;DHT22;45733;52.668;6.860;2023-06-22T15:25:46;23.00;99.90
59857;DHT22;45733;52.668;6.860;2023-06-22T15:28:12;23.10;99.90
59857;DHT22;45733;52.668;6.860;2023-06-22T15:30:38;23.10;99.90
59857;DHT22;45733;52.668;6.860;2023-06-22T15:33:04;23.10;99.90
59857;DHT22;45733;52.668;6.860;2023-06-22T15:35:30;23.10;99.90
59857;DHT22;45733;52.668;6.860;2023-06-22T15:37:56;23.20;99.90
59857;DHT22;45733;52.668;6.860;2023-06-22T15:40:21;23.10;99.90